createdAt,value
2023-02-09T00:00:12.304Z,29.50
2023-02-09T00:02:42.412Z,29.75
2023-02-09T00:05:10.867Z,29.50
2023-02-09T00:07:39.490Z,26.00
2023-02-09T00:10:08.786Z,24.75
2023-02-09T00:12:56.904Z,25.00
2023-02-09T00:15:24.731Z,23.25
2023-02-09T00:17:52.918Z,22.25
2023-02-09T00:20:21.230Z,24.25
2023-02-09T00:22:49.795Z,22.75
2023-02-09T00:25:18.153Z,23.50
2023-02-09T00:27:46.809Z,23.25
2023-02-09T00:30:14.903Z,22.00
2023-02-09T00:32:45.342Z,22.75
2023-02-09T00:35:13.710Z,23.50
2023-02-09T00:37:42.256Z,24.25
2023-02-09T00:40:10.990Z,23.50
2023-02-09T00:42:39.796Z,24.75
2023-02-09T00:45:08.448Z,23.00
2023-02-09T00:47:36.261Z,24.00
2023-02-09T00:50:07.093Z,23.50
2023-02-09T00:52:35.764Z,23.50
2023-02-09T00:55:04.421Z,24.25
2023-02-09T00:57:33.829Z,23.00
2023-02-09T01:00:03.718Z,23.25
2023-02-09T01:02:31.853Z,25.75
2023-02-09T01:05:00.178Z,23.75
2023-02-09T01:07:28.865Z,23.00
2023-02-09T01:09:57.410Z,24.00
2023-02-09T01:12:27.080Z,22.25
2023-02-09T01:14:55.530Z,22.00
2023-02-09T01:17:26.319Z,19.75
2023-02-09T01:19:56.069Z,23.25
2023-02-09T01:22:24.084Z,24.50
2023-02-09T01:24:52.340Z,25.00
2023-02-09T01:27:21.345Z,21.25
2023-02-09T01:29:49.431Z,21.75
2023-02-09T01:32:17.650Z,24.00
2023-02-09T01:34:45.689Z,24.00
2023-02-09T01:37:13.645Z,31.50
2023-02-09T01:39:41.909Z,28.75
2023-02-09T01:42:21.744Z,24.00
2023-02-09T01:44:50.667Z,25.75
2023-02-09T01:47:20.981Z,27.25
2023-02-09T01:49:52.282Z,26.00
2023-02-09T01:52:27.074Z,27.50
2023-02-09T01:54:57.733Z,28.00
2023-02-09T01:57:38.105Z,27.50
2023-02-09T02:00:11.275Z,28.00
2023-02-09T02:02:41.176Z,27.75
2023-02-09T02:05:09.558Z,28.50
2023-02-09T02:07:51.091Z,28.75
2023-02-09T02:10:19.578Z,28.25
2023-02-09T02:12:47.946Z,28.00
2023-02-09T02:15:16.665Z,27.25
2023-02-09T02:17:47.647Z,27.00
2023-02-09T02:20:42.128Z,28.00
2023-02-09T02:23:25.976Z,28.00
2023-02-09T02:26:34.971Z,29.25
2023-02-09T02:29:22.398Z,28.00
2023-02-09T02:32:24.636Z,31.00
2023-02-09T02:35:03.463Z,29.75
2023-02-09T02:37:51.439Z,28.50
2023-02-09T02:40:39.133Z,28.00
2023-02-09T02:43:22.482Z,27.25
2023-02-09T02:45:59.103Z,30.00
2023-02-09T02:48:46.238Z,30.25
2023-02-09T02:52:11.071Z,27.25
2023-02-09T02:55:18.827Z,26.00
2023-02-09T02:57:52.202Z,28.25
2023-02-09T03:00:27.994Z,27.50
2023-02-09T03:03:00.776Z,26.25
2023-02-09T03:05:29.741Z,27.25
2023-02-09T03:07:57.680Z,27.75
2023-02-09T03:10:35.146Z,27.75
2023-02-09T03:13:30.995Z,29.50
2023-02-09T03:16:16.524Z,28.00
2023-02-09T03:18:57.671Z,29.25
2023-02-09T03:21:52.904Z,26.75
2023-02-09T03:24:36.720Z,27.50
2023-02-09T03:41:08.614Z,22.50
2023-02-09T03:43:56.558Z,32.25
2023-02-09T03:46:25.305Z,34.50
2023-02-09T03:48:53.629Z,33.00
2023-02-09T03:51:21.788Z,37.25
2023-02-09T03:53:49.861Z,29.50
2023-02-09T03:56:18.078Z,33.50
2023-02-09T04:04:42.517Z,34.50
2023-02-09T04:07:12.427Z,33.00
2023-02-09T04:09:42.364Z,32.50
2023-02-09T04:12:10.407Z,31.75
2023-02-09T04:14:39.501Z,28.75
2023-02-09T04:17:07.382Z,31.25
2023-02-09T04:19:36.232Z,32.00
2023-02-09T04:22:04.305Z,34.25
2023-02-09T04:24:33.149Z,41.00
2023-02-09T04:27:01.297Z,36.50
2023-02-09T04:29:29.833Z,32.50
2023-02-09T04:32:00.221Z,34.50
2023-02-09T04:34:28.486Z,33.00
2023-02-09T04:36:56.992Z,30.75
2023-02-09T04:39:25.496Z,32.25
2023-02-09T04:41:54.962Z,29.50
2023-02-09T04:44:23.658Z,31.00
2023-02-09T04:46:51.692Z,30.00
2023-02-09T04:49:19.542Z,29.50
2023-02-09T04:51:47.331Z,30.00
2023-02-09T04:54:15.112Z,31.00
2023-02-09T04:56:44.403Z,30.50
2023-02-09T04:59:38.808Z,29.50
2023-02-09T05:02:07.030Z,31.00
2023-02-09T05:04:35.470Z,32.25
2023-02-09T05:07:10.663Z,34.00
2023-02-09T05:09:39.034Z,30.50
2023-02-09T05:12:11.132Z,30.75
2023-02-09T05:14:39.658Z,32.75
2023-02-09T05:17:08.344Z,32.00
2023-02-09T05:20:02.345Z,31.50
2023-02-09T05:22:31.155Z,32.25
2023-02-09T05:24:59.518Z,31.25
2023-02-09T05:27:28.922Z,35.00
2023-02-09T05:29:57.684Z,30.50
2023-02-09T05:32:26.116Z,28.50
2023-02-09T05:34:54.370Z,30.00
2023-02-09T05:37:23.230Z,28.50
2023-02-09T05:39:53.946Z,28.25
2023-02-09T05:42:24.440Z,30.50
2023-02-09T05:44:52.565Z,31.00
2023-02-09T05:47:23.524Z,34.00
2023-02-09T05:49:52.997Z,36.00
2023-02-09T05:52:22.648Z,33.25
2023-02-09T05:54:54.492Z,32.75
2023-02-09T05:57:25.369Z,32.00
2023-02-09T05:59:55.012Z,33.50
2023-02-09T06:02:24.361Z,31.50
2023-02-09T06:04:52.467Z,32.25
2023-02-09T06:07:20.643Z,31.00
2023-02-09T06:09:49.977Z,36.50
2023-02-09T06:12:19.353Z,35.00
2023-02-09T06:14:48.679Z,32.50
2023-02-09T06:17:17.239Z,36.00
2023-02-09T06:19:46.401Z,33.50
2023-02-09T06:22:15.803Z,34.25
2023-02-09T06:24:44.857Z,34.25
2023-02-09T06:27:14.483Z,34.25
2023-02-09T06:32:24.718Z,31.00
2023-02-09T06:35:01.383Z,40.50
2023-02-09T06:37:30.144Z,31.25
2023-02-09T06:39:59.624Z,30.25
2023-02-09T06:42:44.410Z,29.50
2023-02-09T06:45:20.499Z,34.25
2023-02-09T06:47:50.287Z,33.00
2023-02-09T06:50:23.942Z,35.00
2023-02-09T06:52:55.612Z,32.25
2023-02-09T06:58:11.936Z,31.00
2023-02-09T07:00:46.038Z,33.00
2023-02-09T07:03:20.259Z,31.00
2023-02-09T07:05:49.517Z,32.25
2023-02-09T07:08:18.902Z,32.25
2023-02-09T07:10:49.491Z,32.25
2023-02-09T07:13:17.614Z,28.75
2023-02-09T07:15:46.231Z,24.75
2023-02-09T07:18:17.650Z,32.00
2023-02-09T07:20:46.706Z,30.00
2023-02-09T07:23:18.325Z,24.25
2023-02-09T07:25:51.803Z,30.25
2023-02-09T07:28:25.871Z,30.25
2023-02-09T07:30:55.941Z,32.25
2023-02-09T07:33:25.088Z,33.00
2023-02-09T07:36:00.910Z,32.25
2023-02-09T07:38:40.857Z,31.50
2023-02-09T07:41:22.378Z,30.25
2023-02-09T07:43:51.785Z,30.50
2023-02-09T07:46:32.719Z,28.25
2023-02-09T07:54:36.456Z,32.67
2023-02-09T07:57:10.286Z,25.00
2023-02-09T07:59:43.800Z,31.50
2023-02-09T08:02:45.492Z,31.33
2023-02-09T08:05:37.625Z,26.00
2023-02-09T08:08:07.093Z,36.67
2023-02-09T08:10:38.323Z,26.00
2023-02-09T08:13:07.756Z,31.00
2023-02-09T08:15:47.293Z,24.33
2023-02-09T08:21:06.758Z,28.00
2023-02-09T08:23:36.955Z,33.00
2023-02-09T08:26:10.200Z,31.33
2023-02-09T08:28:44.451Z,33.00
2023-02-09T08:31:15.864Z,27.67
2023-02-09T08:33:49.570Z,27.33
2023-02-09T08:36:24.568Z,25.00
2023-02-09T08:38:56.834Z,23.67
2023-02-09T08:41:26.136Z,28.67
2023-02-09T08:46:46.689Z,28.67
2023-02-09T08:49:20.318Z,27.33
2023-02-09T08:51:53.721Z,26.33
2023-02-09T08:54:22.766Z,34.67
2023-02-09T08:57:06.460Z,29.67
2023-02-09T08:59:35.508Z,33.00
2023-02-09T09:02:04.194Z,32.33
2023-02-09T09:04:35.840Z,32.00
2023-02-09T09:07:04.195Z,29.33
2023-02-09T09:09:32.878Z,29.33
2023-02-09T09:12:01.256Z,27.67
2023-02-09T09:14:30.323Z,25.00
2023-02-09T09:16:59.313Z,24.67
2023-02-09T09:19:31.126Z,24.33
2023-02-09T09:22:06.000Z,23.00
2023-02-09T09:24:40.717Z,25.33
2023-02-09T09:27:11.597Z,27.33
2023-02-09T09:29:41.378Z,27.33
2023-02-09T09:32:16.382Z,29.00
2023-02-09T09:34:45.638Z,23.67
2023-02-09T09:37:16.149Z,23.33
2023-02-09T09:39:44.160Z,24.33
2023-02-09T09:42:27.641Z,27.33
2023-02-09T09:44:56.300Z,26.00
2023-02-09T09:47:37.431Z,23.67
2023-02-09T09:50:14.559Z,26.33
2023-02-09T09:52:52.544Z,26.67
2023-02-09T09:55:33.670Z,28.33
2023-02-09T09:58:05.440Z,30.33
2023-02-09T10:00:41.233Z,25.67
2023-02-09T10:03:21.516Z,29.00
2023-02-09T10:05:54.688Z,32.67
2023-02-09T10:08:30.682Z,26.67
2023-02-09T10:11:28.300Z,35.00
2023-02-09T10:13:58.585Z,40.33
2023-02-09T10:16:34.749Z,29.33
2023-02-09T10:19:06.292Z,31.00
2023-02-09T10:21:37.382Z,29.33
2023-02-09T10:24:25.879Z,31.67
2023-02-09T10:27:27.562Z,27.25
2023-02-09T10:29:56.246Z,26.50
2023-02-09T10:32:38.803Z,28.75
2023-02-09T10:38:41.869Z,1.50
2023-02-09T10:41:12.127Z,20.75
2023-02-09T10:43:40.200Z,25.00
2023-02-09T10:46:19.334Z,21.00
2023-02-09T10:48:48.359Z,17.00
2023-02-09T10:51:31.633Z,18.25
2023-02-09T10:54:21.716Z,15.25
2023-02-09T10:56:54.565Z,13.00
2023-02-09T10:59:27.066Z,18.00
2023-02-09T11:02:01.409Z,13.00
2023-02-09T11:04:41.364Z,11.75
2023-02-09T11:07:13.970Z,6.75
2023-02-09T11:09:51.083Z,9.00
2023-02-09T11:12:22.930Z,5.50
2023-02-09T11:14:51.463Z,9.00
2023-02-09T11:17:36.878Z,6.00
2023-02-09T11:20:24.632Z,2.00
2023-02-09T11:23:13.802Z,2.00
2023-02-09T11:29:11.170Z,2.00
2023-02-09T11:32:07.591Z,5.00
2023-02-09T11:34:47.649Z,8.00
2023-02-09T11:37:36.463Z,7.00
2023-02-09T11:40:28.811Z,9.25
2023-02-09T11:42:57.596Z,8.75
2023-02-09T11:45:39.407Z,8.75
2023-02-09T11:48:31.290Z,12.00
2023-02-09T11:51:22.712Z,13.00
2023-02-09T11:54:04.993Z,15.75
2023-02-09T11:56:41.919Z,17.00
2023-02-09T11:59:16.092Z,13.00
2023-02-09T12:01:53.642Z,11.75
2023-02-09T12:04:32.014Z,12.50
2023-02-09T12:07:11.985Z,13.00
2023-02-09T12:10:04.251Z,12.25
2023-02-09T12:12:47.959Z,11.25
2023-02-09T12:15:16.968Z,16.25
2023-02-09T12:18:14.367Z,15.50
2023-02-09T12:20:53.533Z,16.00
2023-02-09T12:23:25.151Z,15.75
2023-02-09T12:26:00.426Z,14.50
2023-02-09T12:28:29.022Z,16.00
2023-02-09T12:31:20.079Z,15.25
2023-02-09T12:33:58.854Z,20.25
2023-02-09T12:36:34.529Z,16.25
2023-02-09T12:39:25.850Z,18.25
2023-02-09T12:42:05.052Z,14.50
2023-02-09T12:44:33.494Z,17.00
2023-02-09T12:47:02.035Z,14.75
2023-02-09T12:49:30.356Z,10.75
2023-02-09T12:52:01.203Z,15.50
2023-02-09T12:54:47.598Z,16.00
2023-02-09T12:57:15.961Z,16.50
2023-02-09T12:59:50.191Z,17.00
2023-02-09T13:02:30.646Z,15.50
2023-02-09T13:05:05.408Z,13.75
2023-02-09T13:07:56.964Z,14.00
2023-02-09T13:10:33.124Z,13.50
2023-02-09T13:13:12.149Z,11.25
2023-02-09T13:16:12.084Z,11.75
2023-02-09T13:19:13.299Z,6.00
2023-02-09T13:22:01.867Z,10.50
2023-02-09T13:24:44.479Z,10.75
2023-02-09T13:27:23.302Z,9.25
2023-02-09T13:30:09.907Z,15.75
2023-02-09T13:33:04.577Z,17.25
2023-02-09T13:38:53.055Z,17.75
2023-02-09T13:41:27.943Z,18.75
2023-02-09T13:43:58.033Z,11.75
2023-02-09T13:46:36.028Z,21.00
2023-02-09T13:49:26.494Z,23.00
2023-02-09T13:52:38.784Z,21.75
2023-02-09T13:55:17.762Z,19.75
2023-02-09T14:04:14.998Z,24.25
2023-02-09T14:07:11.035Z,23.75
2023-02-09T14:09:52.841Z,23.00
2023-02-09T14:16:23.716Z,26.00
2023-02-09T14:26:22.576Z,22.67
2023-02-09T14:56:39.101Z,17.67
2023-02-09T14:59:18.608Z,31.00
2023-02-09T15:05:01.034Z,31.67
2023-02-09T15:07:40.864Z,29.00
2023-02-09T15:37:36.090Z,24.67
2023-02-09T15:49:35.760Z,33.33
2023-02-09T15:55:05.413Z,29.00
2023-02-09T15:57:35.256Z,31.67
2023-02-09T16:00:21.614Z,36.00
2023-02-09T16:14:58.109Z,37.00
2023-02-09T16:20:19.893Z,38.00
2023-02-09T17:06:46.185Z,41.75
2023-02-09T17:57:37.467Z,33.00
2023-02-09T18:03:19.815Z,34.75
2023-02-09T18:12:00.169Z,39.50
2023-02-09T18:14:35.546Z,39.00
2023-02-09T18:20:11.833Z,37.25
2023-02-09T18:25:59.055Z,42.00
2023-02-09T18:37:20.367Z,53.25
2023-02-09T18:48:56.587Z,24.75
2023-02-09T18:57:23.555Z,50.00
2023-02-09T19:03:31.251Z,50.25
2023-02-09T19:06:04.788Z,48.25
2023-02-09T19:17:37.651Z,46.00
2023-02-09T19:20:29.142Z,46.75
2023-02-09T19:38:01.316Z,56.25
2023-02-09T19:40:44.954Z,52.75
2023-02-09T19:49:20.952Z,47.50
2023-02-09T19:58:18.758Z,45.75
2023-02-09T20:33:19.538Z,50.75
2023-02-09T20:35:48.343Z,49.00
2023-02-09T20:38:25.819Z,49.75
2023-02-09T20:41:03.905Z,54.50
2023-02-09T20:43:52.564Z,57.25
2023-02-09T20:46:47.247Z,56.50
2023-02-09T20:49:19.731Z,52.00
2023-02-09T21:27:11.498Z,55.00
2023-02-09T21:29:45.982Z,63.75
2023-02-09T21:32:21.145Z,63.50
2023-02-09T21:34:58.169Z,62.75
2023-02-09T21:37:40.737Z,64.00
2023-02-09T21:40:16.877Z,69.75
2023-02-09T21:42:45.769Z,49.25
2023-02-09T21:45:14.709Z,59.25
2023-02-09T21:50:27.834Z,51.50
2023-02-09T21:52:57.605Z,50.75
2023-02-09T21:55:26.462Z,68.75
2023-02-09T21:57:57.139Z,72.00
2023-02-09T22:00:25.626Z,51.75
2023-02-09T22:02:55.318Z,47.00
2023-02-09T22:05:24.554Z,44.75
2023-02-09T22:07:53.932Z,51.25
2023-02-09T22:10:22.959Z,52.75
2023-02-09T22:12:52.111Z,49.00
2023-02-09T22:15:23.219Z,49.75
2023-02-09T22:17:58.194Z,45.25
2023-02-09T22:20:33.681Z,47.75
2023-02-09T22:23:03.097Z,47.25
2023-02-09T22:25:45.504Z,44.75
2023-02-09T22:28:16.883Z,47.00
2023-02-09T22:30:49.021Z,45.75
2023-02-09T22:36:18.677Z,44.00
2023-02-09T22:38:46.770Z,46.75
2023-02-09T22:41:27.039Z,43.75
2023-02-09T22:44:08.059Z,47.00
2023-02-09T22:46:41.396Z,45.00
2023-02-09T22:49:14.859Z,47.00
2023-02-09T22:51:49.734Z,51.00
2023-02-09T22:54:21.917Z,53.50
2023-02-09T22:56:50.962Z,49.75
2023-02-09T22:59:20.805Z,21.00
2023-02-09T23:01:51.642Z,51.50
2023-02-09T23:04:21.875Z,51.25
2023-02-09T23:06:51.765Z,51.25
2023-02-09T23:09:21.937Z,45.75
2023-02-09T23:11:52.649Z,48.00
2023-02-09T23:14:21.713Z,46.50
2023-02-09T23:16:52.929Z,47.00
2023-02-09T23:19:24.949Z,47.50
2023-02-09T23:22:05.232Z,46.00
2023-02-09T23:24:47.387Z,46.00
2023-02-09T23:27:31.749Z,44.00
2023-02-09T23:30:04.150Z,46.75
2023-02-09T23:32:35.732Z,48.50
2023-02-09T23:35:06.331Z,45.00
2023-02-09T23:37:50.515Z,48.75
2023-02-09T23:43:07.998Z,49.00
2023-02-09T23:45:41.695Z,52.00
2023-02-09T23:48:11.467Z,49.25
2023-02-09T23:50:41.310Z,54.00
2023-02-09T23:53:14.961Z,56.00
2023-02-09T23:55:52.070Z,46.25
2023-02-09T23:58:26.589Z,46.00
